Time,TemperatureF,DewpointF,PressureIn,WindDirection,WindDirectionDegrees,WindSpeedMPH,WindSpeedGustMPH,Humidity,HourlyPrecipIn,Conditions,Clouds,dailyrainin,SoftwareType,DateUTC
2013-08-18 00:03:00,61.5,60.0,30.16,WNW,291,0.0,3.0,96,0.02,,,0.10,weatherlink.com 1.10,2013-08-18 04:03:00,
2013-08-18 00:18:00,61.4,60.0,30.16,North,349,0.0,2.0,96,0.01,,,0.10,weatherlink.com 1.10,2013-08-18 04:18:00,
2013-08-18 00:33:00,61.2,60.0,30.16,ENE,70,0.0,1.0,96,0.00,,,0.00,weatherlink.com 1.10,2013-08-18 04:33:00,
2013-08-18 00:48:00,61.2,60.0,30.16,SE,128,0.0,1.0,96,0.00,,,0.00,weatherlink.com 1.10,2013-08-18 04:48:00,
2013-08-18 01:03:00,61.3,61.0,30.15,SE,127,0.0,1.0,97,0.00,,,0.00,weatherlink.com 1.10,2013-08-18 05:03:00,
2013-08-18 01:18:00,61.3,61.0,30.15,SE,127,0.0,0.0,97,0.00,,,0.00,weatherlink.com 1.10,2013-08-18 05:18:00,
2013-08-18 01:33:00,61.4,61.0,30.15,SE,127,0.0,0.0,97,0.00,,,0.00,weatherlink.com 1.10,2013-08-18 05:33:00,
2013-08-18 01:48:00,61.3,61.0,30.15,NNE,20,0.0,0.0,97,0.00,,,0.00,weatherlink.com 1.10,2013-08-18 05:48:00,
2013-08-18 02:03:00,61.3,61.0,30.15,NNE,20,0.0,0.0,97,0.00,,,0.00,weatherlink.com 1.10,2013-08-18 06:03:00,
2013-08-18 02:18:00,61.1,60.0,30.15,WNW,284,0.0,0.0,97,0.00,,,0.00,weatherlink.com 1.10,2013-08-18 06:18:00,
2013-08-18 02:33:00,61.1,60.0,30.14,West,259,2.0,2.0,97,0.00,,,0.00,weatherlink.com 1.10,2013-08-18 06:33:00,
2013-08-18 02:48:00,61.2,60.0,30.14,SW,230,0.0,1.0,97,0.00,,,0.00,weatherlink.com 1.10,2013-08-18 06:48:00,
2013-08-18 03:03:00,61.3,61.0,30.14,SW,231,0.0,0.0,97,0.00,,,0.00,weatherlink.com 1.10,2013-08-18 07:03:00,
2013-08-18 03:18:00,61.2,60.0,30.14,SW,230,0.0,1.0,97,0.00,,,0.00,weatherlink.com 1.10,2013-08-18 07:18:00,
2013-08-18 03:33:00,61.2,60.0,30.14,SW,231,0.0,0.0,97,0.00,,,0.00,weatherlink.com 1.10,2013-08-18 07:33:00,
2013-08-18 03:48:00,61.2,60.0,30.14,SW,231,0.0,0.0,97,0.00,,,0.00,weatherlink.com 1.10,2013-08-18 07:48:00,
2013-08-18 04:03:00,61.3,61.0,30.14,SW,231,0.0,0.0,97,0.00,,,0.00,weatherlink.com 1.10,2013-08-18 08:03:00,
2013-08-18 04:18:00,61.3,61.0,30.14,NE,46,0.0,1.0,97,0.00,,,0.00,weatherlink.com 1.10,2013-08-18 08:18:00,
2013-08-18 04:33:00,61.4,61.0,30.13,NE,47,0.0,0.0,97,0.00,,,0.00,weatherlink.com 1.10,2013-08-18 08:33:00,
2013-08-18 04:48:00,61.2,60.0,30.13,NE,47,0.0,0.0,97,0.00,,,0.00,weatherlink.com 1.10,2013-08-18 08:48:00,
2013-08-18 05:03:00,61.3,61.0,30.14,NE,47,0.0,0.0,97,0.00,,,0.00,weatherlink.com 1.10,2013-08-18 09:03:00,
2013-08-18 05:18:00,61.2,60.0,30.14,NE,46,0.0,0.0,97,0.00,,,0.00,weatherlink.com 1.10,2013-08-18 09:18:00,
2013-08-18 05:33:00,61.2,60.0,30.15,NE,47,1.0,1.0,97,0.00,,,0.00,weatherlink.com 1.10,2013-08-18 09:33:00,
2013-08-18 05:48:00,61.1,60.0,30.15,NE,47,0.0,1.0,97,0.00,,,0.00,weatherlink.com 1.10,2013-08-18 09:48:00,
2013-08-18 06:03:00,61.2,60.0,30.16,NE,47,0.0,0.0,97,0.00,,,0.00,weatherlink.com 1.10,2013-08-18 10:03:00,
2013-08-18 06:18:00,61.1,60.0,30.16,NE,47,0.0,0.0,97,0.00,,,0.00,weatherlink.com 1.10,2013-08-18 10:18:00,
2013-08-18 06:33:00,61.2,60.0,30.16,NE,46,0.0,0.0,97,0.00,,,0.00,weatherlink.com 1.10,2013-08-18 10:33:00,
2013-08-18 06:48:00,61.3,61.0,30.18,South,184,0.0,0.0,97,0.00,,,0.00,weatherlink.com 1.10,2013-08-18 10:48:00,
2013-08-18 07:03:00,61.3,61.0,30.18,South,184,0.0,0.0,97,0.00,,,0.00,weatherlink.com 1.10,2013-08-18 11:03:00,
2013-08-18 07:18:00,61.2,60.0,30.18,South,185,0.0,0.0,97,0.00,,,0.00,weatherlink.com 1.10,2013-08-18 11:18:00,
2013-08-18 07:33:00,61.4,61.0,30.18,South,184,0.0,0.0,97,0.00,,,0.00,weatherlink.com 1.10,2013-08-18 11:33:00,
2013-08-18 07:48:00,61.5,61.0,30.18,South,183,0.0,0.0,97,0.00,,,0.00,weatherlink.com 1.10,2013-08-18 11:48:00,
2013-08-18 08:03:00,61.5,61.0,30.18,East,91,0.0,0.0,97,0.01,,,0.01,weatherlink.com 1.10,2013-08-18 12:03:00,
2013-08-18 08:18:00,61.7,61.0,30.19,East,88,0.0,0.0,97,0.01,,,0.01,weatherlink.com 1.10,2013-08-18 12:18:00,
2013-08-18 08:33:00,61.8,61.0,30.20,East,88,0.0,0.0,97,0.01,,,0.01,weatherlink.com 1.10,2013-08-18 12:33:00,
2013-08-18 08:49:00,61.8,61.0,30.20,East,87,0.0,0.0,97,0.02,,,0.02,weatherlink.com 1.10,2013-08-18 12:49:00,
2013-08-18 09:04:00,62.0,62.0,30.20,East,87,0.0,0.0,98,0.01,,,0.02,weatherlink.com 1.10,2013-08-18 13:04:00,
2013-08-18 09:19:00,62.1,61.0,30.20,East,87,0.0,0.0,97,0.02,,,0.03,weatherlink.com 1.10,2013-08-18 13:19:00,
2013-08-18 09:31:00,62.2,61.3,30.20,East,88,0.0,1.0,97,0.04,,,0.04,Wunderground v.1.15,2013-08-18 13:31:00,
2013-08-18 09:36:00,62.3,61.4,30.20,East,88,0.0,1.0,97,0.04,,,0.04,Wunderground v.1.15,2013-08-18 13:36:00,
2013-08-18 09:42:00,62.2,61.3,30.20,ENE,78,0.0,1.0,97,0.04,,,0.04,Wunderground v.1.15,2013-08-18 13:42:00,
2013-08-18 09:47:00,62.3,61.4,30.20,ENE,78,0.0,1.0,97,0.00,,,0.04,Wunderground v.1.15,2013-08-18 13:47:00,
2013-08-18 09:53:00,62.4,61.5,30.21,ENE,78,0.0,1.0,97,0.00,,,0.04,Wunderground v.1.15,2013-08-18 13:53:00,
2013-08-18 09:59:00,62.6,61.7,30.21,ENE,78,0.0,1.0,97,0.00,,,0.04,Wunderground v.1.15,2013-08-18 13:59:00,
2013-08-18 10:04:00,62.8,62.0,30.21,ENE,78,0.0,0.0,98,0.02,,,0.04,weatherlink.com 1.10,2013-08-18 14:04:00,
2013-08-18 10:10:00,62.7,61.8,30.21,ENE,78,0.0,0.0,97,0.00,,,0.04,Wunderground v.1.15,2013-08-18 14:10:00,
2013-08-18 10:15:00,62.8,61.9,30.21,ENE,78,0.0,0.0,97,0.00,,,0.04,Wunderground v.1.15,2013-08-18 14:15:00,
2013-08-18 10:20:00,62.9,62.0,30.21,ENE,78,0.0,0.0,97,0.00,,,0.04,Wunderground v.1.15,2013-08-18 14:20:00,
2013-08-18 10:26:00,62.9,62.0,30.21,ENE,78,0.0,0.0,97,0.00,,,0.04,Wunderground v.1.15,2013-08-18 14:26:00,
2013-08-18 10:31:00,62.9,62.0,30.21,ENE,78,0.0,0.0,97,0.00,,,0.04,Wunderground v.1.15,2013-08-18 14:31:00,
2013-08-18 10:37:00,63.0,62.1,30.21,ENE,78,0.0,0.0,97,0.00,,,0.04,Wunderground v.1.15,2013-08-18 14:37:00,
2013-08-18 10:42:00,62.9,62.0,30.22,ENE,77,0.0,0.0,97,0.00,,,0.04,Wunderground v.1.15,2013-08-18 14:42:00,
2013-08-18 10:48:00,63.0,62.1,30.22,ENE,78,0.0,0.0,97,0.00,,,0.04,Wunderground v.1.15,2013-08-18 14:48:00,
2013-08-18 10:53:00,63.2,62.3,30.22,ENE,78,0.0,0.0,97,0.00,,,0.04,Wunderground v.1.15,2013-08-18 14:53:00,
2013-08-18 10:59:00,63.2,62.3,30.21,East,79,0.0,0.0,97,0.00,,,0.04,Wunderground v.1.15,2013-08-18 14:59:00,
2013-08-18 11:04:00,63.3,63.0,30.21,East,79,0.0,0.0,97,0.00,,,0.04,weatherlink.com 1.10,2013-08-18 15:04:00,
2013-08-18 11:09:00,63.4,62.5,30.21,East,79,0.0,0.0,97,0.00,,,0.04,Wunderground v.1.15,2013-08-18 15:09:00,
2013-08-18 11:14:00,63.4,62.5,30.21,East,79,0.0,0.0,97,0.00,,,0.04,Wunderground v.1.15,2013-08-18 15:14:00,
2013-08-18 11:20:00,63.5,63.0,30.22,East,79,0.0,0.0,97,0.00,,,0.04,weatherlink.com 1.10,2013-08-18 15:20:00,
2013-08-18 11:25:00,63.5,62.3,30.22,East,79,0.0,0.0,96,0.00,,,0.04,Wunderground v.1.15,2013-08-18 15:25:00,
2013-08-18 11:30:00,63.8,62.6,30.22,East,79,0.0,0.0,96,0.00,,,0.04,Wunderground v.1.15,2013-08-18 15:30:00,
2013-08-18 11:36:00,64.3,63.1,30.22,East,79,0.0,0.0,96,0.00,,,0.04,Wunderground v.1.15,2013-08-18 15:36:00,
2013-08-18 11:41:00,64.5,63.0,30.22,East,79,0.0,0.0,95,0.00,,,0.04,Wunderground v.1.15,2013-08-18 15:41:00,
2013-08-18 11:47:00,65.1,63.6,30.22,East,79,0.0,0.0,95,0.00,,,0.04,Wunderground v.1.15,2013-08-18 15:47:00,
2013-08-18 11:53:00,65.3,63.8,30.22,East,79,0.0,0.0,95,0.00,,,0.04,Wunderground v.1.15,2013-08-18 15:53:00,
2013-08-18 11:58:00,65.4,63.9,30.22,SW,221,0.0,0.0,95,0.00,,,0.04,Wunderground v.1.15,2013-08-18 15:58:00,
2013-08-18 12:03:00,65.4,63.9,30.22,South,186,0.0,0.0,95,0.00,,,0.04,Wunderground v.1.15,2013-08-18 16:03:00,
2013-08-18 12:09:00,65.4,63.3,30.22,South,186,0.0,0.0,93,0.00,,,0.04,Wunderground v.1.15,2013-08-18 16:09:00,
2013-08-18 12:14:00,65.6,63.5,30.22,South,187,0.0,0.0,93,0.00,,,0.04,Wunderground v.1.15,2013-08-18 16:14:00,
2013-08-18 12:20:00,65.5,63.0,30.22,South,186,0.0,0.0,92,0.00,,,0.04,weatherlink.com 1.10,2013-08-18 16:20:00,
2013-08-18 12:25:00,65.6,63.5,30.22,South,187,0.0,0.0,93,0.00,,,0.04,Wunderground v.1.15,2013-08-18 16:25:00,
2013-08-18 12:30:00,66.2,64.7,30.21,South,187,0.0,0.0,95,0.00,,,0.04,Wunderground v.1.15,2013-08-18 16:30:00,
2013-08-18 12:36:00,66.5,64.4,30.21,NE,56,0.0,1.0,93,0.00,,,0.04,Wunderground v.1.15,2013-08-18 16:36:00,
2013-08-18 12:41:00,66.5,64.1,30.20,ENE,61,0.0,0.0,92,0.00,,,0.04,Wunderground v.1.15,2013-08-18 16:41:00,
2013-08-18 12:47:00,67.0,64.6,30.20,ENE,60,0.0,0.0,92,0.00,,,0.04,Wunderground v.1.15,2013-08-18 16:47:00,
2013-08-18 12:52:00,67.3,64.9,30.20,ENE,60,0.0,0.0,92,0.00,,,0.04,Wunderground v.1.15,2013-08-18 16:52:00,
2013-08-18 12:58:00,67.7,65.0,30.20,ENE,58,1.0,2.0,91,0.00,,,0.04,Wunderground v.1.15,2013-08-18 16:58:00,
2013-08-18 13:03:00,68.0,65.3,30.19,NE,54,1.0,1.0,91,0.00,,,0.04,Wunderground v.1.15,2013-08-18 17:03:00,
2013-08-18 13:09:00,68.6,65.2,30.19,ENE,72,1.0,1.0,89,0.00,,,0.04,Wunderground v.1.15,2013-08-18 17:09:00,
2013-08-18 13:15:00,69.0,65.0,30.19,ENE,67,0.0,1.0,87,0.00,,,0.04,Wunderground v.1.15,2013-08-18 17:15:00,
2013-08-18 13:21:00,69.6,65.9,30.19,ENE,58,0.0,0.0,88,0.00,,,0.04,Wunderground v.1.15,2013-08-18 17:21:00,
2013-08-18 13:27:00,69.6,65.9,30.19,NNE,20,0.0,3.0,88,0.00,,,0.04,Wunderground v.1.15,2013-08-18 17:27:00,
2013-08-18 13:32:00,69.7,66.0,30.19,NNE,20,0.0,3.0,88,0.00,,,0.04,Wunderground v.1.15,2013-08-18 17:32:00,
2013-08-18 13:37:00,69.6,65.9,30.19,ESE,107,0.0,3.0,88,0.00,,,0.04,Wunderground v.1.15,2013-08-18 17:37:00,
2013-08-18 13:42:00,69.8,65.8,30.19,SE,124,1.0,3.0,87,0.00,,,0.04,Wunderground v.1.15,2013-08-18 17:42:00,
2013-08-18 13:48:00,70.6,66.5,30.18,NNW,347,1.0,3.0,87,0.00,,,0.04,Wunderground v.1.15,2013-08-18 17:48:00,
2013-08-18 13:54:00,70.7,66.3,30.18,NNW,336,1.0,3.0,86,0.00,,,0.04,Wunderground v.1.15,2013-08-18 17:54:00,
2013-08-18 13:59:00,71.4,67.7,30.18,NE,54,1.0,3.0,88,0.00,,,0.04,Wunderground v.1.15,2013-08-18 17:59:00,
2013-08-18 14:04:00,72.2,67.4,30.18,NNE,27,1.0,1.0,85,0.00,,,0.04,Wunderground v.1.15,2013-08-18 18:04:00,
2013-08-18 14:10:00,72.5,67.7,30.17,NE,42,1.0,1.0,85,0.00,,,0.04,Wunderground v.1.15,2013-08-18 18:10:00,
2013-08-18 14:16:00,72.3,67.2,30.17,SW,222,0.0,2.0,84,0.00,,,0.04,Wunderground v.1.15,2013-08-18 18:16:00,
2013-08-18 14:21:00,72.3,67.9,30.17,ENE,59,0.0,0.0,86,0.00,,,0.04,Wunderground v.1.15,2013-08-18 18:21:00,
2013-08-18 14:27:00,72.4,67.6,30.17,ENE,59,0.0,0.0,85,0.00,,,0.04,Wunderground v.1.15,2013-08-18 18:27:00,
2013-08-18 14:32:00,72.4,67.6,30.16,NNW,345,0.0,1.0,85,0.00,,,0.04,Wunderground v.1.15,2013-08-18 18:32:00,
2013-08-18 14:38:00,72.5,67.7,30.16,South,183,1.0,2.0,85,0.00,,,0.04,Wunderground v.1.15,2013-08-18 18:38:00,
2013-08-18 14:43:00,72.7,66.9,30.16,South,183,0.0,2.0,82,0.00,,,0.04,Wunderground v.1.15,2013-08-18 18:43:00,
2013-08-18 14:49:00,72.9,67.4,30.16,South,183,0.0,2.0,83,0.00,,,0.04,Wunderground v.1.15,2013-08-18 18:49:00,
2013-08-18 14:54:00,73.2,69.1,30.16,South,183,0.0,2.0,87,0.00,,,0.04,Wunderground v.1.15,2013-08-18 18:54:00,
2013-08-18 14:59:00,73.4,68.3,30.15,South,183,0.0,2.0,84,0.00,,,0.04,Wunderground v.1.15,2013-08-18 18:59:00,
2013-08-18 15:04:00,72.8,67.0,30.15,South,183,0.0,0.0,82,0.00,,,0.04,Wunderground v.1.15,2013-08-18 19:04:00,
2013-08-18 15:10:00,72.6,67.8,30.15,South,183,0.0,0.0,85,0.00,,,0.04,Wunderground v.1.15,2013-08-18 19:10:00,
2013-08-18 15:15:00,73.0,67.9,30.15,South,183,0.0,0.0,84,0.00,,,0.04,Wunderground v.1.15,2013-08-18 19:15:00,
2013-08-18 15:20:00,73.6,69.2,30.15,South,183,0.0,0.0,86,0.00,,,0.04,Wunderground v.1.15,2013-08-18 19:20:00,
2013-08-18 15:26:00,73.8,68.3,30.14,South,183,0.0,1.0,83,0.00,,,0.04,Wunderground v.1.15,2013-08-18 19:26:00,
2013-08-18 15:31:00,73.9,67.0,30.14,SSW,198,0.0,1.0,79,0.00,,,0.04,Wunderground v.1.15,2013-08-18 19:31:00,
2013-08-18 15:36:00,73.7,66.8,30.14,NE,44,0.0,4.0,79,0.00,,,0.04,Wunderground v.1.15,2013-08-18 19:36:00,
2013-08-18 15:42:00,73.5,66.9,30.14,WNW,287,0.0,1.0,80,0.00,,,0.04,Wunderground v.1.15,2013-08-18 19:42:00,
2013-08-18 15:48:00,73.3,67.1,30.14,WNW,287,0.0,1.0,81,0.00,,,0.04,Wunderground v.1.15,2013-08-18 19:48:00,
2013-08-18 15:53:00,72.9,67.8,30.14,ESE,104,0.0,2.0,84,0.00,,,0.04,Wunderground v.1.15,2013-08-18 19:53:00,
2013-08-18 15:59:00,72.8,66.6,30.14,WSW,245,0.0,2.0,81,0.00,,,0.04,Wunderground v.1.15,2013-08-18 19:59:00,
2013-08-18 16:04:00,72.6,67.5,30.14,WSW,246,0.0,0.0,84,0.00,,,0.04,Wunderground v.1.15,2013-08-18 20:04:00,
2013-08-18 16:10:00,72.4,68.0,30.14,SW,219,0.0,0.0,86,0.00,,,0.04,Wunderground v.1.15,2013-08-18 20:10:00,
2013-08-18 16:15:00,72.4,68.3,30.14,SW,220,0.0,0.0,87,0.00,,,0.04,Wunderground v.1.15,2013-08-18 20:15:00,
2013-08-18 16:20:00,72.0,67.6,30.14,SW,219,0.0,0.0,86,0.00,,,0.04,Wunderground v.1.15,2013-08-18 20:20:00,
2013-08-18 16:26:00,71.3,67.9,30.13,SW,219,0.0,2.0,89,0.00,,,0.04,Wunderground v.1.15,2013-08-18 20:26:00,
2013-08-18 16:31:00,71.2,68.1,30.13,SE,138,0.0,2.0,90,0.00,,,0.04,Wunderground v.1.15,2013-08-18 20:31:00,
2013-08-18 16:36:00,71.1,67.0,30.13,WSW,241,0.0,3.0,88,0.00,,,0.04,weatherlink.com 1.10,2013-08-18 20:36:00,
2013-08-18 16:42:00,71.3,67.6,30.13,ENE,68,0.0,2.0,88,0.00,,,0.04,Wunderground v.1.15,2013-08-18 20:42:00,
2013-08-18 16:47:00,71.6,68.2,30.13,ENE,68,0.0,2.0,89,0.00,,,0.04,Wunderground v.1.15,2013-08-18 20:47:00,
2013-08-18 16:53:00,71.6,67.2,30.13,West,259,0.0,2.0,86,0.00,,,0.04,Wunderground v.1.15,2013-08-18 20:53:00,
2013-08-18 16:58:00,71.6,67.5,30.13,West,259,0.0,2.0,87,0.00,,,0.04,Wunderground v.1.15,2013-08-18 20:58:00,
2013-08-18 17:04:00,71.6,67.2,30.13,ENE,68,0.0,1.0,86,0.00,,,0.04,Wunderground v.1.15,2013-08-18 21:04:00,
2013-08-18 17:09:00,71.7,68.0,30.12,ENE,68,0.0,1.0,88,0.00,,,0.04,Wunderground v.1.15,2013-08-18 21:09:00,
2013-08-18 17:15:00,71.8,68.4,30.12,ENE,68,0.0,0.0,89,0.00,,,0.04,Wunderground v.1.15,2013-08-18 21:15:00,
2013-08-18 17:21:00,71.6,68.2,30.12,ENE,68,0.0,0.0,89,0.00,,,0.04,Wunderground v.1.15,2013-08-18 21:21:00,
2013-08-18 17:26:00,71.6,68.5,30.13,ENE,68,0.0,1.0,90,0.00,,,0.04,Wunderground v.1.15,2013-08-18 21:26:00,
2013-08-18 17:32:00,71.6,67.9,30.12,ENE,70,0.0,1.0,88,0.00,,,0.04,Wunderground v.1.15,2013-08-18 21:32:00,
2013-08-18 17:37:00,71.4,68.0,30.12,ENE,70,0.0,1.0,89,0.00,,,0.04,Wunderground v.1.15,2013-08-18 21:37:00,
2013-08-18 17:42:00,71.4,68.0,30.12,East,89,0.0,1.0,89,0.00,,,0.04,Wunderground v.1.15,2013-08-18 21:42:00,
2013-08-18 17:48:00,71.1,68.0,30.12,East,101,1.0,1.0,90,0.00,,,0.04,Wunderground v.1.15,2013-08-18 21:48:00,
2013-08-18 17:53:00,70.8,67.7,30.12,East,101,1.0,1.0,90,0.00,,,0.04,Wunderground v.1.15,2013-08-18 21:53:00,
2013-08-18 17:58:00,70.6,67.8,30.12,East,100,1.0,1.0,91,0.00,,,0.04,Wunderground v.1.15,2013-08-18 21:58:00,
2013-08-18 18:04:00,70.3,67.5,30.12,East,101,0.0,1.0,91,0.00,,,0.04,Wunderground v.1.15,2013-08-18 22:04:00,
2013-08-18 18:10:00,70.0,67.3,30.13,East,100,0.0,0.0,91,0.00,,,0.04,Wunderground v.1.15,2013-08-18 22:10:00,
2013-08-18 18:15:00,69.8,67.1,30.13,East,101,0.0,0.0,91,0.00,,,0.04,Wunderground v.1.15,2013-08-18 22:15:00,
2013-08-18 18:21:00,69.5,66.4,30.12,East,99,0.0,0.0,90,0.00,,,0.04,Wunderground v.1.15,2013-08-18 22:21:00,
2013-08-18 18:26:00,69.5,66.8,30.13,East,100,0.0,1.0,91,0.00,,,0.04,Wunderground v.1.15,2013-08-18 22:26:00,
2013-08-18 18:32:00,69.3,66.9,30.13,East,101,0.0,1.0,92,0.00,,,0.04,Wunderground v.1.15,2013-08-18 22:32:00,
2013-08-18 18:38:00,69.1,66.7,30.13,East,101,0.0,1.0,92,0.00,,,0.04,Wunderground v.1.15,2013-08-18 22:38:00,
2013-08-18 18:44:00,68.9,66.5,30.13,East,101,0.0,1.0,92,0.00,,,0.04,Wunderground v.1.15,2013-08-18 22:44:00,
2013-08-18 18:50:00,68.7,66.6,30.13,East,101,0.0,1.0,93,0.00,,,0.04,Wunderground v.1.15,2013-08-18 22:50:00,
2013-08-18 18:55:00,68.6,66.5,30.13,ESE,116,0.0,1.0,93,0.00,,,0.04,Wunderground v.1.15,2013-08-18 22:55:00,
2013-08-18 19:00:00,68.6,66.5,30.13,ESE,114,0.0,0.0,93,0.00,,,0.04,Wunderground v.1.15,2013-08-18 23:00:00,
2013-08-18 19:06:00,68.6,66.8,30.13,ESE,120,0.0,0.0,94,0.00,,,0.04,Wunderground v.1.15,2013-08-18 23:06:00,
2013-08-18 19:11:00,68.5,66.7,30.13,ESE,120,0.0,0.0,94,0.00,,,0.04,Wunderground v.1.15,2013-08-18 23:11:00,
2013-08-18 19:16:00,68.4,66.6,30.13,ESE,120,0.0,0.0,94,0.00,,,0.04,Wunderground v.1.15,2013-08-18 23:16:00,
2013-08-18 19:22:00,68.4,66.6,30.14,ESE,120,0.0,0.0,94,0.00,,,0.04,Wunderground v.1.15,2013-08-18 23:22:00,
2013-08-18 19:28:00,68.4,66.6,30.14,ESE,120,0.0,0.0,94,0.00,,,0.04,Wunderground v.1.15,2013-08-18 23:28:00,
2013-08-18 19:33:00,68.3,66.5,30.14,ESE,120,0.0,0.0,94,0.00,,,0.04,Wunderground v.1.15,2013-08-18 23:33:00,
2013-08-18 19:38:00,68.3,67.0,30.14,ESE,120,0.0,0.0,94,0.00,,,0.04,weatherlink.com 1.10,2013-08-18 23:38:00,
2013-08-18 19:44:00,68.2,66.4,30.14,ESE,120,0.0,0.0,94,0.00,,,0.04,Wunderground v.1.15,2013-08-18 23:44:00,
2013-08-18 19:50:00,68.0,66.2,30.14,ESE,120,0.0,0.0,94,0.00,,,0.04,Wunderground v.1.15,2013-08-18 23:50:00,
2013-08-18 19:55:00,67.7,65.9,30.15,East,91,1.0,1.0,94,0.00,,,0.04,Wunderground v.1.15,2013-08-18 23:55:00,
2013-08-18 20:09:00,67.2,66.0,30.15,ENE,70,1.0,1.0,94,0.00,,,0.04,weatherlink.com 1.10,2013-08-19 00:09:00,
2013-08-18 20:24:00,66.9,65.0,30.16,ENE,70,0.0,2.0,94,0.01,,,0.05,weatherlink.com 1.10,2013-08-19 00:24:00,
2013-08-18 20:39:00,66.8,65.0,30.16,WSW,247,0.0,0.0,95,0.01,,,0.05,weatherlink.com 1.10,2013-08-19 00:39:00,
2013-08-18 20:54:00,66.4,65.0,30.16,WSW,248,0.0,0.0,95,0.01,,,0.05,weatherlink.com 1.10,2013-08-19 00:54:00,
2013-08-18 21:09:00,66.2,65.0,30.17,WSW,248,0.0,0.0,96,0.01,,,0.05,weatherlink.com 1.10,2013-08-19 01:09:00,
2013-08-18 21:24:00,65.7,65.0,30.17,WSW,248,0.0,0.0,96,0.00,,,0.05,weatherlink.com 1.10,2013-08-19 01:24:00,
2013-08-18 21:39:00,65.4,64.0,30.17,WSW,248,1.0,1.0,96,0.00,,,0.05,weatherlink.com 1.10,2013-08-19 01:39:00,
2013-08-18 21:54:00,65.2,64.0,30.18,WSW,248,0.0,1.0,95,0.00,,,0.05,weatherlink.com 1.10,2013-08-19 01:54:00,
2013-08-18 22:09:00,65.3,64.0,30.19,WSW,248,0.0,1.0,95,0.00,,,0.05,weatherlink.com 1.10,2013-08-19 02:09:00,
2013-08-18 22:24:00,65.2,64.0,30.19,WSW,248,0.0,0.0,95,0.00,,,0.05,weatherlink.com 1.10,2013-08-19 02:24:00,
2013-08-18 22:39:00,65.0,64.0,30.19,WSW,248,0.0,1.0,95,0.00,,,0.05,weatherlink.com 1.10,2013-08-19 02:39:00,
2013-08-18 22:54:00,64.9,64.0,30.19,WSW,248,0.0,0.0,96,0.01,,,0.06,weatherlink.com 1.10,2013-08-19 02:54:00,
2013-08-18 23:09:00,64.8,64.0,30.20,WSW,248,0.0,0.0,96,0.02,,,0.07,weatherlink.com 1.10,2013-08-19 03:09:00,
2013-08-18 23:24:00,64.7,64.0,30.20,WSW,248,0.0,0.0,96,0.03,,,0.08,weatherlink.com 1.10,2013-08-19 03:24:00,
2013-08-18 23:39:00,64.7,64.0,30.19,WSW,248,0.0,0.0,97,0.05,,,0.10,weatherlink.com 1.10,2013-08-19 03:39:00,
2013-08-18 23:54:00,64.6,64.0,30.19,WSW,248,0.0,0.0,97,0.05,,,0.11,weatherlink.com 1.10,2013-08-19 03:54:00,